sensor_id;sensor_type;location;lat;lon;timestamp;P1;durP1;ratioP1;P2;durP2;ratioP2
21245;SDS011;10781;50.928;4.440;2022-09-30T00:01:28;55.90;;;52.22;;
21245;SDS011;10781;50.928;4.440;2022-09-30T00:03:54;55.92;;;52.40;;
21245;SDS011;10781;50.928;4.440;2022-09-30T00:06:21;54.20;;;50.90;;
21245;SDS011;10781;50.928;4.440;2022-09-30T00:08:48;53.75;;;50.63;;
21245;SDS011;10781;50.928;4.440;2022-09-30T00:11:15;55.58;;;52.25;;
21245;SDS011;10781;50.928;4.440;2022-09-30T00:13:44;54.30;;;51.10;;
21245;SDS011;10781;50.928;4.440;2022-09-30T00:16:11;55.63;;;52.20;;
21245;SDS011;10781;50.928;4.440;2022-09-30T00:18:38;57.15;;;53.70;;
21245;SDS011;10781;50.928;4.440;2022-09-30T00:21:05;57.08;;;53.55;;
21245;SDS011;10781;50.928;4.440;2022-09-30T00:23:32;57.30;;;53.60;;
21245;SDS011;10781;50.928;4.440;2022-09-30T00:25:58;56.85;;;53.30;;
21245;SDS011;10781;50.928;4.440;2022-09-30T00:28:26;57.88;;;54.08;;
21245;SDS011;10781;50.928;4.440;2022-09-30T00:30:53;57.60;;;54.17;;
21245;SDS011;10781;50.928;4.440;2022-09-30T00:33:19;57.78;;;54.00;;
21245;SDS011;10781;50.928;4.440;2022-09-30T00:35:45;57.47;;;53.92;;
21245;SDS011;10781;50.928;4.440;2022-09-30T00:38:10;56.65;;;53.10;;
21245;SDS011;10781;50.928;4.440;2022-09-30T00:40:39;57.35;;;53.95;;
21245;SDS011;10781;50.928;4.440;2022-09-30T00:43:12;57.53;;;54.08;;
21245;SDS011;10781;50.928;4.440;2022-09-30T00:45:59;56.20;;;52.80;;
21245;SDS011;10781;50.928;4.440;2022-09-30T00:48:29;57.13;;;53.72;;
21245;SDS011;10781;50.928;4.440;2022-09-30T00:50:59;56.00;;;52.88;;
21245;SDS011;10781;50.928;4.440;2022-09-30T00:55:58;56.53;;;52.92;;
21245;SDS011;10781;50.928;4.440;2022-09-30T01:01:08;57.10;;;53.38;;
21245;SDS011;10781;50.928;4.440;2022-09-30T01:03:35;57.03;;;53.42;;
21245;SDS011;10781;50.928;4.440;2022-09-30T01:06:05;57.88;;;54.13;;
21245;SDS011;10781;50.928;4.440;2022-09-30T01:08:31;56.60;;;53.00;;
21245;SDS011;10781;50.928;4.440;2022-09-30T01:11:00;57.40;;;53.78;;
21245;SDS011;10781;50.928;4.440;2022-09-30T01:13:25;59.28;;;55.50;;
21245;SDS011;10781;50.928;4.440;2022-09-30T01:23:58;57.88;;;54.15;;
21245;SDS011;10781;50.928;4.440;2022-09-30T01:37:34;59.20;;;55.42;;
21245;SDS011;10781;50.928;4.440;2022-09-30T01:45:39;59.50;;;55.67;;
21245;SDS011;10781;50.928;4.440;2022-09-30T01:50:46;57.63;;;53.92;;
21245;SDS011;10781;50.928;4.440;2022-09-30T01:55:52;58.85;;;54.97;;
21245;SDS011;10781;50.928;4.440;2022-09-30T01:58:36;60.22;;;56.42;;
21245;SDS011;10781;50.928;4.440;2022-09-30T02:01:09;57.30;;;53.80;;
21245;SDS011;10781;50.928;4.440;2022-09-30T02:03:46;58.03;;;54.30;;
21245;SDS011;10781;50.928;4.440;2022-09-30T02:06:17;59.58;;;55.78;;
21245;SDS011;10781;50.928;4.440;2022-09-30T02:09:08;60.78;;;56.58;;
21245;SDS011;10781;50.928;4.440;2022-09-30T02:11:38;60.58;;;56.60;;
21245;SDS011;10781;50.928;4.440;2022-09-30T02:17:04;59.10;;;55.55;;
21245;SDS011;10781;50.928;4.440;2022-09-30T02:22:30;58.78;;;55.08;;
21245;SDS011;10781;50.928;4.440;2022-09-30T02:25:17;58.63;;;54.92;;
21245;SDS011;10781;50.928;4.440;2022-09-30T02:27:53;59.22;;;55.35;;
21245;SDS011;10781;50.928;4.440;2022-09-30T02:30:22;58.40;;;54.70;;
21245;SDS011;10781;50.928;4.440;2022-09-30T02:33:10;59.20;;;55.50;;
21245;SDS011;10781;50.928;4.440;2022-09-30T02:35:49;60.65;;;56.75;;
21245;SDS011;10781;50.928;4.440;2022-09-30T02:38:19;60.08;;;56.30;;
21245;SDS011;10781;50.928;4.440;2022-09-30T02:40:55;60.22;;;56.42;;
21245;SDS011;10781;50.928;4.440;2022-09-30T02:43:26;58.63;;;55.00;;
21245;SDS011;10781;50.928;4.440;2022-09-30T02:51:24;59.65;;;56.05;;
21245;SDS011;10781;50.928;4.440;2022-09-30T02:54:17;61.13;;;57.13;;
21245;SDS011;10781;50.928;4.440;2022-09-30T02:56:52;61.30;;;57.55;;
21245;SDS011;10781;50.928;4.440;2022-09-30T02:59:23;60.90;;;57.08;;
21245;SDS011;10781;50.928;4.440;2022-09-30T03:01:50;58.55;;;54.92;;
21245;SDS011;10781;50.928;4.440;2022-09-30T03:04:23;60.95;;;56.97;;
21245;SDS011;10781;50.928;4.440;2022-09-30T03:06:51;60.03;;;55.97;;
21245;SDS011;10781;50.928;4.440;2022-09-30T03:09:23;62.47;;;58.58;;
21245;SDS011;10781;50.928;4.440;2022-09-30T03:11:50;59.97;;;56.28;;
21245;SDS011;10781;50.928;4.440;2022-09-30T03:17:39;60.92;;;57.03;;
21245;SDS011;10781;50.928;4.440;2022-09-30T03:20:53;59.90;;;55.80;;
21245;SDS011;10781;50.928;4.440;2022-09-30T03:23:45;60.03;;;56.22;;
21245;SDS011;10781;50.928;4.440;2022-09-30T03:29:38;59.47;;;55.80;;
21245;SDS011;10781;50.928;4.440;2022-09-30T03:32:29;60.75;;;56.92;;
21245;SDS011;10781;50.928;4.440;2022-09-30T03:37:34;58.90;;;55.03;;
21245;SDS011;10781;50.928;4.440;2022-09-30T03:40:28;60.42;;;56.53;;
21245;SDS011;10781;50.928;4.440;2022-09-30T03:43:10;62.47;;;58.17;;
21245;SDS011;10781;50.928;4.440;2022-09-30T03:45:54;60.00;;;55.97;;
21245;SDS011;10781;50.928;4.440;2022-09-30T03:48:33;60.05;;;56.00;;
21245;SDS011;10781;50.928;4.440;2022-09-30T03:51:02;57.95;;;54.35;;
21245;SDS011;10781;50.928;4.440;2022-09-30T03:53:29;58.10;;;54.50;;
21245;SDS011;10781;50.928;4.440;2022-09-30T03:55:55;61.25;;;57.30;;
21245;SDS011;10781;50.928;4.440;2022-09-30T03:58:21;59.38;;;55.58;;
21245;SDS011;10781;50.928;4.440;2022-09-30T04:00:51;60.55;;;56.55;;
21245;SDS011;10781;50.928;4.440;2022-09-30T04:03:18;60.88;;;57.13;;
21245;SDS011;10781;50.928;4.440;2022-09-30T04:05:45;58.15;;;54.45;;
21245;SDS011;10781;50.928;4.440;2022-09-30T04:08:12;64.38;;;59.78;;
21245;SDS011;10781;50.928;4.440;2022-09-30T04:10:38;63.35;;;58.80;;
21245;SDS011;10781;50.928;4.440;2022-09-30T04:13:05;61.65;;;57.30;;
21245;SDS011;10781;50.928;4.440;2022-09-30T04:15:32;59.30;;;55.40;;
21245;SDS011;10781;50.928;4.440;2022-09-30T04:17:58;60.88;;;56.38;;
21245;SDS011;10781;50.928;4.440;2022-09-30T04:20:24;62.58;;;58.17;;
21245;SDS011;10781;50.928;4.440;2022-09-30T04:22:50;63.15;;;58.72;;
21245;SDS011;10781;50.928;4.440;2022-09-30T04:25:16;64.05;;;59.38;;
21245;SDS011;10781;50.928;4.440;2022-09-30T04:27:42;64.65;;;60.08;;
21245;SDS011;10781;50.928;4.440;2022-09-30T04:30:08;64.53;;;60.35;;
21245;SDS011;10781;50.928;4.440;2022-09-30T04:32:34;62.58;;;58.17;;
21245;SDS011;10781;50.928;4.440;2022-09-30T04:34:59;63.70;;;59.22;;
21245;SDS011;10781;50.928;4.440;2022-09-30T04:37:25;63.42;;;58.55;;
21245;SDS011;10781;50.928;4.440;2022-09-30T04:39:51;65.38;;;60.67;;
21245;SDS011;10781;50.928;4.440;2022-09-30T04:42:16;66.32;;;61.22;;
21245;SDS011;10781;50.928;4.440;2022-09-30T04:44:42;65.13;;;60.17;;
21245;SDS011;10781;50.928;4.440;2022-09-30T04:47:08;64.80;;;60.17;;
21245;SDS011;10781;50.928;4.440;2022-09-30T04:49:34;65.05;;;60.25;;
21245;SDS011;10781;50.928;4.440;2022-09-30T04:52:00;66.43;;;61.63;;
21245;SDS011;10781;50.928;4.440;2022-09-30T04:54:26;66.50;;;61.38;;
21245;SDS011;10781;50.928;4.440;2022-09-30T04:56:51;66.00;;;61.03;;
21245;SDS011;10781;50.928;4.440;2022-09-30T04:59:17;67.13;;;62.20;;
21245;SDS011;10781;50.928;4.440;2022-09-30T05:01:43;65.28;;;60.67;;
21245;SDS011;10781;50.928;4.440;2022-09-30T05:04:08;66.78;;;62.00;;
21245;SDS011;10781;50.928;4.440;2022-09-30T05:06:36;66.32;;;61.20;;
21245;SDS011;10781;50.928;4.440;2022-09-30T05:09:04;66.93;;;61.95;;
21245;SDS011;10781;50.928;4.440;2022-09-30T05:11:30;67.43;;;62.63;;
21245;SDS011;10781;50.928;4.440;2022-09-30T05:13:56;68.40;;;63.42;;
21245;SDS011;10781;50.928;4.440;2022-09-30T05:16:21;68.43;;;63.55;;
21245;SDS011;10781;50.928;4.440;2022-09-30T05:18:47;67.50;;;62.22;;
21245;SDS011;10781;50.928;4.440;2022-09-30T05:21:14;69.10;;;64.15;;
21245;SDS011;10781;50.928;4.440;2022-09-30T05:23:41;66.47;;;61.28;;
21245;SDS011;10781;50.928;4.440;2022-09-30T05:26:07;66.30;;;61.30;;
21245;SDS011;10781;50.928;4.440;2022-09-30T05:28:33;69.63;;;64.53;;
21245;SDS011;10781;50.928;4.440;2022-09-30T05:31:03;70.43;;;65.32;;
21245;SDS011;10781;50.928;4.440;2022-09-30T05:33:30;68.25;;;63.17;;
21245;SDS011;10781;50.928;4.440;2022-09-30T05:36:04;70.13;;;64.65;;
21245;SDS011;10781;50.928;4.440;2022-09-30T05:38:31;68.15;;;62.95;;
21245;SDS011;10781;50.928;4.440;2022-09-30T05:40:57;69.88;;;64.35;;
21245;SDS011;10781;50.928;4.440;2022-09-30T05:43:23;68.85;;;63.63;;
21245;SDS011;10781;50.928;4.440;2022-09-30T05:45:52;73.00;;;67.20;;
21245;SDS011;10781;50.928;4.440;2022-09-30T05:48:19;69.50;;;64.15;;
21245;SDS011;10781;50.928;4.440;2022-09-30T05:50:45;68.43;;;63.45;;
21245;SDS011;10781;50.928;4.440;2022-09-30T05:53:15;69.60;;;64.40;;
21245;SDS011;10781;50.928;4.440;2022-09-30T05:55:44;69.85;;;64.68;;
21245;SDS011;10781;50.928;4.440;2022-09-30T05:58:11;70.88;;;65.55;;
21245;SDS011;10781;50.928;4.440;2022-09-30T06:00:39;69.50;;;64.35;;
21245;SDS011;10781;50.928;4.440;2022-09-30T06:03:09;69.93;;;64.45;;
21245;SDS011;10781;50.928;4.440;2022-09-30T06:05:35;72.38;;;66.70;;
21245;SDS011;10781;50.928;4.440;2022-09-30T06:08:01;71.18;;;65.88;;
21245;SDS011;10781;50.928;4.440;2022-09-30T06:10:28;70.70;;;65.15;;
21245;SDS011;10781;50.928;4.440;2022-09-30T06:12:54;67.63;;;62.50;;
21245;SDS011;10781;50.928;4.440;2022-09-30T06:15:20;67.63;;;62.30;;
21245;SDS011;10781;50.928;4.440;2022-09-30T06:17:50;68.55;;;63.58;;
21245;SDS011;10781;50.928;4.440;2022-09-30T06:20:19;67.55;;;62.90;;
21245;SDS011;10781;50.928;4.440;2022-09-30T06:22:44;65.03;;;60.22;;
21245;SDS011;10781;50.928;4.440;2022-09-30T06:25:10;64.35;;;59.67;;
21245;SDS011;10781;50.928;4.440;2022-09-30T06:27:36;64.47;;;59.63;;
21245;SDS011;10781;50.928;4.440;2022-09-30T06:30:03;64.05;;;59.75;;
21245;SDS011;10781;50.928;4.440;2022-09-30T06:32:29;62.40;;;58.30;;
21245;SDS011;10781;50.928;4.440;2022-09-30T06:34:55;64.32;;;60.03;;
21245;SDS011;10781;50.928;4.440;2022-09-30T06:37:21;62.55;;;58.20;;
21245;SDS011;10781;50.928;4.440;2022-09-30T06:39:47;62.20;;;58.10;;
21245;SDS011;10781;50.928;4.440;2022-09-30T06:42:14;64.18;;;59.47;;
21245;SDS011;10781;50.928;4.440;2022-09-30T06:44:40;64.85;;;60.40;;
21245;SDS011;10781;50.928;4.440;2022-09-30T06:47:06;64.00;;;59.30;;
21245;SDS011;10781;50.928;4.440;2022-09-30T06:49:33;60.47;;;56.42;;
21245;SDS011;10781;50.928;4.440;2022-09-30T06:51:58;58.88;;;54.60;;
21245;SDS011;10781;50.928;4.440;2022-09-30T06:54:25;60.50;;;56.30;;
21245;SDS011;10781;50.928;4.440;2022-09-30T06:56:52;60.78;;;56.63;;
21245;SDS011;10781;50.928;4.440;2022-09-30T06:59:21;57.08;;;53.20;;
21245;SDS011;10781;50.928;4.440;2022-09-30T07:01:47;58.85;;;54.97;;
21245;SDS011;10781;50.928;4.440;2022-09-30T07:04:13;59.63;;;55.38;;
21245;SDS011;10781;50.928;4.440;2022-09-30T07:06:38;59.05;;;54.25;;
21245;SDS011;10781;50.928;4.440;2022-09-30T07:09:05;58.55;;;54.55;;
21245;SDS011;10781;50.928;4.440;2022-09-30T07:11:31;59.70;;;55.50;;
21245;SDS011;10781;50.928;4.440;2022-09-30T07:13:57;59.65;;;54.97;;
21245;SDS011;10781;50.928;4.440;2022-09-30T07:16:22;54.97;;;51.28;;
21245;SDS011;10781;50.928;4.440;2022-09-30T07:18:49;57.65;;;53.15;;
21245;SDS011;10781;50.928;4.440;2022-09-30T07:21:15;54.08;;;50.67;;
21245;SDS011;10781;50.928;4.440;2022-09-30T07:23:44;56.35;;;51.88;;
21245;SDS011;10781;50.928;4.440;2022-09-30T07:26:17;55.45;;;51.58;;
21245;SDS011;10781;50.928;4.440;2022-09-30T07:28:44;55.38;;;51.92;;
21245;SDS011;10781;50.928;4.440;2022-09-30T07:31:12;53.97;;;49.80;;
21245;SDS011;10781;50.928;4.440;2022-09-30T07:33:40;55.65;;;51.53;;
21245;SDS011;10781;50.928;4.440;2022-09-30T07:36:07;55.55;;;52.05;;
21245;SDS011;10781;50.928;4.440;2022-09-30T07:38:35;54.47;;;50.65;;
21245;SDS011;10781;50.928;4.440;2022-09-30T07:41:04;55.03;;;51.00;;
21245;SDS011;10781;50.928;4.440;2022-09-30T07:43:34;52.42;;;48.95;;
21245;SDS011;10781;50.928;4.440;2022-09-30T07:48:34;52.55;;;48.97;;
21245;SDS011;10781;50.928;4.440;2022-09-30T07:51:09;52.88;;;49.47;;
21245;SDS011;10781;50.928;4.440;2022-09-30T07:53:37;52.60;;;49.03;;
21245;SDS011;10781;50.928;4.440;2022-09-30T07:56:05;52.65;;;48.55;;
21245;SDS011;10781;50.928;4.440;2022-09-30T07:58:31;51.10;;;47.85;;
21245;SDS011;10781;50.928;4.440;2022-09-30T08:00:57;51.92;;;48.35;;
21245;SDS011;10781;50.928;4.440;2022-09-30T08:03:23;52.13;;;48.47;;
21245;SDS011;10781;50.928;4.440;2022-09-30T08:05:49;52.42;;;48.72;;
21245;SDS011;10781;50.928;4.440;2022-09-30T08:08:15;50.80;;;47.53;;
21245;SDS011;10781;50.928;4.440;2022-09-30T08:10:41;51.72;;;48.17;;
21245;SDS011;10781;50.928;4.440;2022-09-30T08:13:07;51.03;;;47.60;;
21245;SDS011;10781;50.928;4.440;2022-09-30T08:15:34;50.97;;;47.65;;
21245;SDS011;10781;50.928;4.440;2022-09-30T08:18:00;52.28;;;48.78;;
21245;SDS011;10781;50.928;4.440;2022-09-30T08:20:26;51.17;;;47.80;;
21245;SDS011;10781;50.928;4.440;2022-09-30T08:22:54;48.30;;;45.20;;
21245;SDS011;10781;50.928;4.440;2022-09-30T08:25:21;50.33;;;46.92;;
21245;SDS011;10781;50.928;4.440;2022-09-30T08:27:47;52.30;;;48.90;;
21245;SDS011;10781;50.928;4.440;2022-09-30T08:30:13;50.30;;;46.72;;
21245;SDS011;10781;50.928;4.440;2022-09-30T08:32:38;46.83;;;43.70;;
21245;SDS011;10781;50.928;4.440;2022-09-30T08:35:04;48.80;;;45.53;;
21245;SDS011;10781;50.928;4.440;2022-09-30T08:37:30;48.20;;;44.70;;
21245;SDS011;10781;50.928;4.440;2022-09-30T08:39:56;49.83;;;46.35;;
21245;SDS011;10781;50.928;4.440;2022-09-30T08:43:00;48.88;;;45.50;;
21245;SDS011;10781;50.928;4.440;2022-09-30T08:48:37;50.42;;;47.08;;
21245;SDS011;10781;50.928;4.440;2022-09-30T08:51:29;45.90;;;42.80;;
21245;SDS011;10781;50.928;4.440;2022-09-30T08:53:58;47.05;;;44.05;;
21245;SDS011;10781;50.928;4.440;2022-09-30T08:56:28;45.53;;;42.85;;
21245;SDS011;10781;50.928;4.440;2022-09-30T08:58:57;43.97;;;41.28;;
21245;SDS011;10781;50.928;4.440;2022-09-30T09:01:44;46.08;;;43.20;;
21245;SDS011;10781;50.928;4.440;2022-09-30T09:04:12;45.47;;;42.65;;
21245;SDS011;10781;50.928;4.440;2022-09-30T09:06:47;45.38;;;42.45;;
21245;SDS011;10781;50.928;4.440;2022-09-30T09:20:35;44.50;;;41.95;;
21245;SDS011;10781;50.928;4.440;2022-09-30T09:23:08;45.25;;;42.65;;
21245;SDS011;10781;50.928;4.440;2022-09-30T09:25:36;44.83;;;42.40;;
21245;SDS011;10781;50.928;4.440;2022-09-30T09:28:04;45.65;;;42.70;;
21245;SDS011;10781;50.928;4.440;2022-09-30T09:30:41;44.10;;;41.50;;
21245;SDS011;10781;50.928;4.440;2022-09-30T09:33:17;43.17;;;40.50;;
21245;SDS011;10781;50.928;4.440;2022-09-30T09:35:48;43.90;;;41.20;;
21245;SDS011;10781;50.928;4.440;2022-09-30T09:46:49;42.58;;;40.28;;
21245;SDS011;10781;50.928;4.440;2022-09-30T09:49:33;44.08;;;41.03;;
21245;SDS011;10781;50.928;4.440;2022-09-30T09:54:46;41.13;;;38.75;;
21245;SDS011;10781;50.928;4.440;2022-09-30T09:57:16;42.50;;;39.70;;
21245;SDS011;10781;50.928;4.440;2022-09-30T10:00:04;42.75;;;40.28;;
21245;SDS011;10781;50.928;4.440;2022-09-30T10:03:00;42.08;;;39.88;;
21245;SDS011;10781;50.928;4.440;2022-09-30T10:05:30;40.17;;;37.97;;
21245;SDS011;10781;50.928;4.440;2022-09-30T10:11:21;39.13;;;36.97;;
21245;SDS011;10781;50.928;4.440;2022-09-30T10:13:39;39.40;;;37.15;;
21245;SDS011;10781;50.928;4.440;2022-09-30T10:16:08;42.08;;;39.22;;
21245;SDS011;10781;50.928;4.440;2022-09-30T10:18:59;42.67;;;40.40;;
21245;SDS011;10781;50.928;4.440;2022-09-30T10:21:26;39.53;;;37.47;;
21245;SDS011;10781;50.928;4.440;2022-09-30T10:23:53;41.85;;;39.60;;
21245;SDS011;10781;50.928;4.440;2022-09-30T10:26:23;42.67;;;40.47;;
21245;SDS011;10781;50.928;4.440;2022-09-30T10:28:54;41.33;;;39.25;;
21245;SDS011;10781;50.928;4.440;2022-09-30T10:36:46;41.60;;;39.47;;
21245;SDS011;10781;50.928;4.440;2022-09-30T10:41:47;40.67;;;38.50;;
21245;SDS011;10781;50.928;4.440;2022-09-30T10:44:17;39.83;;;37.70;;
21245;SDS011;10781;50.928;4.440;2022-09-30T10:46:47;40.45;;;38.33;;
21245;SDS011;10781;50.928;4.440;2022-09-30T10:49:25;37.30;;;35.20;;
21245;SDS011;10781;50.928;4.440;2022-09-30T10:52:15;40.85;;;38.78;;
21245;SDS011;10781;50.928;4.440;2022-09-30T10:54:47;38.47;;;36.45;;
21245;SDS011;10781;50.928;4.440;2022-09-30T10:57:15;41.92;;;39.60;;
21245;SDS011;10781;50.928;4.440;2022-09-30T10:59:46;40.70;;;38.67;;
21245;SDS011;10781;50.928;4.440;2022-09-30T11:02:28;41.50;;;39.40;;
21245;SDS011;10781;50.928;4.440;2022-09-30T11:05:06;39.08;;;37.05;;
21245;SDS011;10781;50.928;4.440;2022-09-30T11:07:52;38.65;;;36.45;;
21245;SDS011;10781;50.928;4.440;2022-09-30T11:15:42;39.75;;;37.50;;
21245;SDS011;10781;50.928;4.440;2022-09-30T11:18:24;39.30;;;37.35;;
21245;SDS011;10781;50.928;4.440;2022-09-30T11:21:05;39.97;;;37.97;;
21245;SDS011;10781;50.928;4.440;2022-09-30T11:26:55;39.03;;;37.15;;
21245;SDS011;10781;50.928;4.440;2022-09-30T11:35:55;39.20;;;37.25;;
21245;SDS011;10781;50.928;4.440;2022-09-30T11:42:21;41.95;;;40.05;;
21245;SDS011;10781;50.928;4.440;2022-09-30T11:59:23;39.85;;;38.00;;
21245;SDS011;10781;50.928;4.440;2022-09-30T12:02:00;42.13;;;40.03;;
21245;SDS011;10781;50.928;4.440;2022-09-30T12:07:07;37.72;;;35.83;;
21245;SDS011;10781;50.928;4.440;2022-09-30T12:12:08;41.78;;;39.67;;
21245;SDS011;10781;50.928;4.440;2022-09-30T12:14:39;42.03;;;39.80;;
21245;SDS011;10781;50.928;4.440;2022-09-30T12:17:28;41.88;;;39.88;;
21245;SDS011;10781;50.928;4.440;2022-09-30T12:20:15;42.15;;;40.05;;
21245;SDS011;10781;50.928;4.440;2022-09-30T12:22:51;41.35;;;39.35;;
21245;SDS011;10781;50.928;4.440;2022-09-30T12:25:39;40.47;;;38.47;;
21245;SDS011;10781;50.928;4.440;2022-09-30T12:28:24;42.50;;;40.30;;
21245;SDS011;10781;50.928;4.440;2022-09-30T12:31:33;43.85;;;41.63;;
21245;SDS011;10781;50.928;4.440;2022-09-30T12:51:40;41.15;;;39.08;;
21245;SDS011;10781;50.928;4.440;2022-09-30T12:54:12;39.40;;;37.42;;
21245;SDS011;10781;50.928;4.440;2022-09-30T12:56:58;40.10;;;38.30;;
21245;SDS011;10781;50.928;4.440;2022-09-30T12:59:28;42.58;;;40.33;;
21245;SDS011;10781;50.928;4.440;2022-09-30T13:01:56;43.13;;;40.83;;
21245;SDS011;10781;50.928;4.440;2022-09-30T13:09:30;41.10;;;38.50;;
21245;SDS011;10781;50.928;4.440;2022-09-30T13:19:46;40.25;;;38.20;;
21245;SDS011;10781;50.928;4.440;2022-09-30T13:32:45;41.00;;;38.88;;
21245;SDS011;10781;50.928;4.440;2022-09-30T13:40:51;41.85;;;39.75;;
21245;SDS011;10781;50.928;4.440;2022-09-30T13:43:30;41.63;;;39.45;;
21245;SDS011;10781;50.928;4.440;2022-09-30T13:46:19;42.75;;;40.60;;
21245;SDS011;10781;50.928;4.440;2022-09-30T13:48:55;41.15;;;39.05;;
21245;SDS011;10781;50.928;4.440;2022-09-30T13:51:26;43.25;;;41.15;;
21245;SDS011;10781;50.928;4.440;2022-09-30T13:53:55;40.67;;;38.67;;
21245;SDS011;10781;50.928;4.440;2022-09-30T13:56:25;42.17;;;39.92;;
21245;SDS011;10781;50.928;4.440;2022-09-30T14:06:47;42.35;;;40.22;;
21245;SDS011;10781;50.928;4.440;2022-09-30T14:09:34;42.88;;;40.78;;
21245;SDS011;10781;50.928;4.440;2022-09-30T14:20:02;43.03;;;40.88;;
21245;SDS011;10781;50.928;4.440;2022-09-30T14:22:54;41.50;;;39.42;;
21245;SDS011;10781;50.928;4.440;2022-09-30T14:25:20;41.47;;;39.38;;
21245;SDS011;10781;50.928;4.440;2022-09-30T14:28:06;40.95;;;38.85;;
21245;SDS011;10781;50.928;4.440;2022-09-30T14:30:40;41.70;;;39.50;;
21245;SDS011;10781;50.928;4.440;2022-09-30T14:33:27;43.03;;;40.85;;
21245;SDS011;10781;50.928;4.440;2022-09-30T14:35:55;41.20;;;39.10;;
21245;SDS011;10781;50.928;4.440;2022-09-30T14:38:26;41.20;;;39.10;;
21245;SDS011;10781;50.928;4.440;2022-09-30T14:41:03;41.80;;;39.70;;
21245;SDS011;10781;50.928;4.440;2022-09-30T14:43:39;40.78;;;38.80;;
21245;SDS011;10781;50.928;4.440;2022-09-30T14:46:09;38.70;;;36.80;;
21245;SDS011;10781;50.928;4.440;2022-09-30T14:48:41;38.97;;;36.88;;
21245;SDS011;10781;50.928;4.440;2022-09-30T14:51:10;40.75;;;38.33;;
21245;SDS011;10781;50.928;4.440;2022-09-30T14:53:38;41.60;;;39.40;;
21245;SDS011;10781;50.928;4.440;2022-09-30T14:56:20;40.35;;;38.17;;
21245;SDS011;10781;50.928;4.440;2022-09-30T14:58:51;39.70;;;37.70;;
21245;SDS011;10781;50.928;4.440;2022-09-30T15:01:18;40.30;;;38.30;;
21245;SDS011;10781;50.928;4.440;2022-09-30T15:03:56;39.65;;;37.85;;
21245;SDS011;10781;50.928;4.440;2022-09-30T15:06:32;37.53;;;35.72;;
21245;SDS011;10781;50.928;4.440;2022-09-30T15:09:05;37.35;;;35.55;;
21245;SDS011;10781;50.928;4.440;2022-09-30T15:11:38;39.80;;;37.80;;
21245;SDS011;10781;50.928;4.440;2022-09-30T15:14:21;39.80;;;37.80;;
21245;SDS011;10781;50.928;4.440;2022-09-30T15:19:16;41.22;;;39.05;;
21245;SDS011;10781;50.928;4.440;2022-09-30T15:21:47;40.17;;;38.28;;
21245;SDS011;10781;50.928;4.440;2022-09-30T15:24:17;41.78;;;39.65;;
21245;SDS011;10781;50.928;4.440;2022-09-30T15:26:45;39.90;;;37.90;;
21245;SDS011;10781;50.928;4.440;2022-09-30T15:29:13;39.47;;;37.60;;
21245;SDS011;10781;50.928;4.440;2022-09-30T15:31:44;40.92;;;38.72;;
21245;SDS011;10781;50.928;4.440;2022-09-30T15:34:15;39.72;;;37.60;;
21245;SDS011;10781;50.928;4.440;2022-09-30T15:36:46;40.05;;;38.00;;
21245;SDS011;10781;50.928;4.440;2022-09-30T15:39:23;39.10;;;37.25;;
21245;SDS011;10781;50.928;4.440;2022-09-30T15:42:12;40.33;;;37.20;;
21245;SDS011;10781;50.928;4.440;2022-09-30T15:44:40;39.42;;;37.45;;
21245;SDS011;10781;50.928;4.440;2022-09-30T15:47:07;38.33;;;36.55;;
21245;SDS011;10781;50.928;4.440;2022-09-30T15:55:00;40.63;;;38.72;;
21245;SDS011;10781;50.928;4.440;2022-09-30T15:57:43;40.83;;;38.63;;
21245;SDS011;10781;50.928;4.440;2022-09-30T16:03:32;41.38;;;39.03;;
21245;SDS011;10781;50.928;4.440;2022-09-30T16:06:07;40.95;;;38.95;;
21245;SDS011;10781;50.928;4.440;2022-09-30T16:08:45;42.55;;;40.25;;
21245;SDS011;10781;50.928;4.440;2022-09-30T16:11:18;41.10;;;38.85;;
21245;SDS011;10781;50.928;4.440;2022-09-30T16:13:50;41.00;;;38.97;;
21245;SDS011;10781;50.928;4.440;2022-09-30T16:16:18;41.13;;;38.92;;
21245;SDS011;10781;50.928;4.440;2022-09-30T16:18:46;40.58;;;38.47;;
21245;SDS011;10781;50.928;4.440;2022-09-30T16:26:51;41.35;;;39.45;;
21245;SDS011;10781;50.928;4.440;2022-09-30T16:29:18;42.17;;;39.97;;
21245;SDS011;10781;50.928;4.440;2022-09-30T16:31:44;41.08;;;38.97;;
21245;SDS011;10781;50.928;4.440;2022-09-30T16:36:51;41.70;;;39.83;;
21245;SDS011;10781;50.928;4.440;2022-09-30T16:39:19;41.30;;;39.35;;
21245;SDS011;10781;50.928;4.440;2022-09-30T16:41:45;40.15;;;38.25;;
21245;SDS011;10781;50.928;4.440;2022-09-30T16:44:11;41.88;;;39.67;;
21245;SDS011;10781;50.928;4.440;2022-09-30T16:46:37;41.97;;;39.97;;
21245;SDS011;10781;50.928;4.440;2022-09-30T16:49:16;42.67;;;40.38;;
21245;SDS011;10781;50.928;4.440;2022-09-30T16:51:43;41.28;;;39.28;;
21245;SDS011;10781;50.928;4.440;2022-09-30T16:54:09;41.40;;;39.40;;
21245;SDS011;10781;50.928;4.440;2022-09-30T16:56:35;42.40;;;40.20;;
21245;SDS011;10781;50.928;4.440;2022-09-30T16:59:01;42.13;;;39.90;;
21245;SDS011;10781;50.928;4.440;2022-09-30T17:01:27;42.00;;;39.75;;
21245;SDS011;10781;50.928;4.440;2022-09-30T17:03:54;41.40;;;39.50;;
21245;SDS011;10781;50.928;4.440;2022-09-30T17:06:26;42.15;;;40.10;;
21245;SDS011;10781;50.928;4.440;2022-09-30T17:08:53;43.60;;;40.97;;
21245;SDS011;10781;50.928;4.440;2022-09-30T17:11:27;41.25;;;39.28;;
21245;SDS011;10781;50.928;4.440;2022-09-30T17:13:55;43.33;;;41.25;;
21245;SDS011;10781;50.928;4.440;2022-09-30T17:16:21;41.17;;;38.90;;
21245;SDS011;10781;50.928;4.440;2022-09-30T17:18:48;42.10;;;40.00;;
21245;SDS011;10781;50.928;4.440;2022-09-30T17:21:18;41.78;;;39.88;;
21245;SDS011;10781;50.928;4.440;2022-09-30T17:23:44;42.95;;;40.70;;
21245;SDS011;10781;50.928;4.440;2022-09-30T17:26:10;43.55;;;41.35;;
21245;SDS011;10781;50.928;4.440;2022-09-30T17:28:35;43.13;;;40.83;;
21245;SDS011;10781;50.928;4.440;2022-09-30T17:31:01;41.20;;;38.90;;
21245;SDS011;10781;50.928;4.440;2022-09-30T17:33:31;41.72;;;39.70;;
21245;SDS011;10781;50.928;4.440;2022-09-30T17:36:01;41.10;;;39.05;;
21245;SDS011;10781;50.928;4.440;2022-09-30T17:38:30;42.22;;;40.33;;
21245;SDS011;10781;50.928;4.440;2022-09-30T17:40:57;41.70;;;39.70;;
21245;SDS011;10781;50.928;4.440;2022-09-30T17:43:42;42.92;;;40.97;;
21245;SDS011;10781;50.928;4.440;2022-09-30T17:46:09;42.03;;;40.13;;
21245;SDS011;10781;50.928;4.440;2022-09-30T17:48:35;42.78;;;40.67;;
21245;SDS011;10781;50.928;4.440;2022-09-30T17:51:02;42.47;;;40.47;;
21245;SDS011;10781;50.928;4.440;2022-09-30T17:53:28;42.20;;;40.20;;
21245;SDS011;10781;50.928;4.440;2022-09-30T17:56:01;43.40;;;41.30;;
21245;SDS011;10781;50.928;4.440;2022-09-30T17:58:36;45.08;;;42.90;;
21245;SDS011;10781;50.928;4.440;2022-09-30T18:01:06;42.13;;;40.10;;
21245;SDS011;10781;50.928;4.440;2022-09-30T18:03:33;42.80;;;40.67;;
21245;SDS011;10781;50.928;4.440;2022-09-30T18:05:59;44.00;;;41.90;;
21245;SDS011;10781;50.928;4.440;2022-09-30T18:08:25;45.30;;;42.88;;
21245;SDS011;10781;50.928;4.440;2022-09-30T18:10:52;43.45;;;41.42;;
21245;SDS011;10781;50.928;4.440;2022-09-30T18:13:18;43.90;;;41.90;;
21245;SDS011;10781;50.928;4.440;2022-09-30T18:15:44;42.45;;;40.45;;
21245;SDS011;10781;50.928;4.440;2022-09-30T18:18:10;43.35;;;41.35;;